Terminal Aerodrome Forecast
Issued by NWS

Home | Current Version | Previous Version | Text Only | Print | Product List | Glossary On
Versions: 1 2 3 4 5 6 7 8 9 10 11 12 13 14 15 16 17 18 19 20 21 22
000
FTUS43 KMQT 232300 AAA
TAFCMX
TAF AMD
KCMX 232333Z 2400/2424 14005KT 1SM BR OVC007
     FM240200 VRB03KT 1SM -RA BR OVC003
     FM241000 36014KT 1SM -RA BR OVC003
     FM241300 36014G23KT 1SM -SN OVC006
     FM241600 35020G30KT 1SM -SN OVC006=

USA.gov is the U.S. government's official web portal to all federal, state and local government web resources and services.